MO64 weather

Kimberling Airport
Kimberling City, Missouri, United States

Public forecast

Using degrees Fahrenheit for public forecast. Weather courtesy of forecast.io.

METAR (pilot weather report)

Closest report is Boone County Airport, 25.2 nm (46.6 km) SE. Retrieved 2019/08/25 15:37 UTC (0 seconds ago):

KHRO 251537Z AUTO 14006KT 3/4SM BR VV002 21/21 A2998 RMK AO2 T02110211

TAF (pilot weather forecast)

Closest forecast is Boone County Airport, 25.2 nm (46.6 km) SE. Retrieved 2019/08/25 12:22 UTC (3 hours ago):

TAF KHRO 251120Z 2512/2612 13009KT 4SM BR VCSH BKN008 OVC015 TEMPO 2512/2514 3/4SM BR OVC002 FM251400 15009KT P6SM VCTS SCT025 OVC035CB TEMPO 2514/2518 5SM TSRA BR BKN015 OVC025CB FM260300 14007KT 5SM BR VCFG SCT008 OVC040